Time;durP1;ratioP1;P1;durP2;ratioP2;P2;SDS_P1;SDS_P2;PMS_P1;PMS_P2;Temp;Humidity;BMP_temperature;BMP_pressure;BME280_temperature;BME280_humidity;BME280_pressure;Samples;Min_cycle;Max_cycle;Signal;HPM_P1;HPM_P2
2023/04/27 00:01:48;;;;;;;9.23;6.50;;;;;;;10.59;61.50;98896.34;5051697;28;20052;-76
2023/04/27 00:04:15;;;;;;;7.63;5.03;;;;;;;10.61;60.01;98893.19;5052800;28;20064;-76
2023/04/27 00:06:41;;;;;;;7.13;5.93;;;;;;;10.61;60.06;98905.22;5052906;28;20052;-76
2023/04/27 00:09:06;;;;;;;8.43;5.13;;;;;;;10.60;60.40;98908.34;5051466;28;20531;-76
2023/04/27 00:11:32;;;;;;;13.80;6.00;;;;;;;10.53;60.05;98903.34;5051510;28;20124;-75
2023/04/27 00:13:57;;;;;;;7.68;5.68;;;;;;;10.54;60.66;98904.97;5044558;28;20018;-75
2023/04/27 00:16:23;;;;;;;10.13;5.97;;;;;;;10.52;60.06;98910.91;5033761;28;20025;-76
2023/04/27 00:18:48;;;;;;;14.88;6.30;;;;;;;10.54;60.28;98924.53;5041885;28;20041;-75
2023/04/27 00:21:14;;;;;;;8.38;5.35;;;;;;;10.52;60.09;98929.66;5051126;28;20047;-75
2023/04/27 00:23:39;;;;;;;7.75;5.13;;;;;;;10.45;60.23;98921.06;5052344;28;20020;-75
2023/04/27 00:26:05;;;;;;;10.55;5.07;;;;;;;10.36;60.26;98916.34;5052575;28;20048;-76
2023/04/27 00:28:30;;;;;;;9.85;5.18;;;;;;;10.45;59.43;98924.66;5049159;28;20480;-75
2023/04/27 00:30:56;;;;;;;7.82;4.70;;;;;;;10.44;59.01;98925.81;5032583;28;20033;-75
2023/04/27 00:33:21;;;;;;;7.05;4.72;;;;;;;10.43;58.85;98924.19;5032437;28;20083;-75
2023/04/27 00:35:47;;;;;;;7.55;4.90;;;;;;;10.46;58.94;98940.25;5031532;28;20041;-75
2023/04/27 00:38:12;;;;;;;7.10;5.45;;;;;;;10.38;58.36;98930.78;5032409;28;20417;-76
2023/04/27 00:40:38;;;;;;;9.50;5.45;;;;;;;10.42;59.90;98939.34;5032385;28;20033;-75
2023/04/27 00:43:04;;;;;;;9.38;4.43;;;;;;;10.41;59.65;98937.69;5030832;28;20065;-75
2023/04/27 00:45:29;;;;;;;8.63;4.70;;;;;;;10.40;58.97;98947.22;5032671;28;20034;-76
2023/04/27 00:47:55;;;;;;;7.72;4.70;;;;;;;10.33;59.39;98930.19;5041616;28;20037;-75
2023/04/27 00:50:28;;;;;;;6.45;4.57;;;;;;;10.23;60.34;98943.44;5051993;28;20417;-75
2023/04/27 00:52:54;;;;;;;5.85;4.38;;;;;;;10.28;60.22;98961.97;5050536;28;20400;-75
2023/04/27 00:55:20;;;;;;;9.38;5.85;;;;;;;10.23;60.54;98953.81;5051899;28;20498;-75
2023/04/27 00:57:45;;;;;;;8.50;4.72;;;;;;;10.22;60.92;98963.38;5044975;28;20029;-76
2023/04/27 01:00:12;;;;;;;9.35;5.18;;;;;;;10.18;61.50;98966.03;5048453;28;20039;-75
2023/04/27 01:02:38;;;;;;;13.15;4.90;;;;;;;10.09;61.04;98966.13;5051777;28;20107;-76
2023/04/27 01:05:07;;;;;;;12.68;5.25;;;;;;;10.11;61.14;98968.56;5050443;28;20032;-75
2023/04/27 01:07:32;;;;;;;5.90;4.43;;;;;;;10.11;60.93;98968.56;5036867;28;20064;-75
2023/04/27 01:09:57;;;;;;;9.48;4.90;;;;;;;10.08;60.16;98963.66;5051045;28;20052;-75
2023/04/27 01:12:23;;;;;;;13.77;5.22;;;;;;;10.09;60.21;98976.47;5051644;28;20162;-76
2023/04/27 01:14:48;;;;;;;6.97;4.82;;;;;;;10.09;60.92;98973.69;5047912;28;20047;-75
2023/04/27 01:17:14;;;;;;;11.60;5.47;;;;;;;10.00;61.11;98975.75;5046288;28;20049;-75
2023/04/27 01:19:40;;;;;;;11.15;5.00;;;;;;;9.93;62.41;98979.91;5031551;28;20029;-76
2023/04/27 01:22:06;;;;;;;7.50;4.85;;;;;;;9.88;63.51;98991.28;5031644;28;20404;-75
2023/04/27 01:24:31;;;;;;;9.93;4.70;;;;;;;9.80;63.15;98976.25;5038661;28;20029;-75
2023/04/27 01:26:57;;;;;;;13.07;5.55;;;;;;;9.74;64.29;98985.16;5031533;28;20472;-75
2023/04/27 01:29:22;;;;;;;9.63;5.30;;;;;;;9.74;65.19;98979.59;5039544;28;20033;-75
2023/04/27 01:31:48;;;;;;;14.52;5.75;;;;;;;9.68;65.05;98990.16;5030094;28;20029;-75
2023/04/27 01:34:14;;;;;;;10.18;5.18;;;;;;;9.71;63.89;98986.66;5031275;28;20029;-75
2023/04/27 01:36:39;;;;;;;9.63;4.97;;;;;;;9.62;63.24;98992.31;5031278;28;20056;-75
2023/04/27 01:39:08;;;;;;;7.63;5.45;;;;;;;9.67;63.63;98991.31;5032445;28;20385;-75
2023/04/27 01:41:34;;;;;;;10.52;4.50;;;;;;;9.64;63.63;98987.22;5050981;28;20032;-76
2023/04/27 01:44:00;;;;;;;10.48;5.13;;;;;;;9.67;62.84;98999.69;5049258;28;20198;-75
2023/04/27 01:46:25;;;;;;;9.48;5.10;;;;;;;9.72;61.11;98995.88;5033057;28;20029;-75
2023/04/27 01:48:51;;;;;;;12.57;4.78;;;;;;;9.74;61.04;98996.34;5031158;28;20060;-75
2023/04/27 01:51:16;;;;;;;14.40;6.05;;;;;;;9.75;60.35;98992.38;5031169;28;20022;-75
2023/04/27 01:53:42;;;;;;;9.23;4.63;;;;;;;9.69;61.30;99000.97;5031232;28;20061;-75
2023/04/27 01:56:09;;;;;;;7.85;5.95;;;;;;;9.59;62.21;98995.81;5038632;28;20033;-75
2023/04/27 01:58:34;;;;;;;10.10;5.07;;;;;;;9.63;61.03;98998.75;5042824;28;20090;-76
2023/04/27 02:01:00;;;;;;;9.65;4.68;;;;;;;9.72;60.28;99012.63;5050418;28;20125;-75
2023/04/27 02:03:25;;;;;;;8.50;4.35;;;;;;;9.67;59.69;99000.50;5051059;28;20033;-76
2023/04/27 02:05:51;;;;;;;7.32;4.97;;;;;;;9.66;60.41;99010.06;5035306;28;20029;-75
2023/04/27 02:08:16;;;;;;;6.93;5.22;;;;;;;9.66;60.10;99009.22;5030985;28;20033;-75
2023/04/27 02:10:42;;;;;;;6.28;4.25;;;;;;;9.63;60.22;99010.72;5030982;28;20036;-75
2023/04/27 02:13:08;;;;;;;7.13;4.75;;;;;;;9.65;59.06;99000.03;5044063;28;20025;-75
2023/04/27 02:15:34;;;;;;;19.30;5.95;;;;;;;9.67;59.43;99017.28;5040261;28;20095;-75
2023/04/27 02:18:00;;;;;;;10.00;4.88;;;;;;;9.75;57.83;99011.94;5031012;28;20584;-75
2023/04/27 02:20:25;;;;;;;9.20;4.15;;;;;;;9.73;56.65;99005.88;5030881;28;20029;-75
2023/04/27 02:22:52;;;;;;;7.57;4.18;;;;;;;9.72;57.18;99004.25;5045159;28;20119;-76
2023/04/27 02:25:18;;;;;;;7.88;4.90;;;;;;;9.75;56.90;99023.09;5041519;28;20444;-75
2023/04/27 02:27:43;;;;;;;12.57;5.40;;;;;;;9.70;56.54;99010.16;5035526;28;20037;-75
2023/04/27 02:30:10;;;;;;;11.00;4.00;;;;;;;9.68;57.18;99013.31;5040743;28;20124;-76
2023/04/27 02:32:36;;;;;;;17.20;4.63;;;;;;;9.69;57.64;99012.16;5050871;28;20029;-75
2023/04/27 02:35:03;;;;;;;6.43;4.28;;;;;;;9.65;57.93;99021.56;5050607;28;20448;-75
2023/04/27 02:37:28;;;;;;;8.00;4.25;;;;;;;9.64;56.86;99017.13;5050158;28;20500;-75
2023/04/27 02:39:54;;;;;;;7.78;4.55;;;;;;;9.69;56.40;99020.53;5050676;28;20108;-75
2023/04/27 02:42:19;;;;;;;6.32;4.35;;;;;;;9.65;56.96;99025.19;5049505;28;20029;-75
2023/04/27 02:44:45;;;;;;;8.80;4.65;;;;;;;9.64;56.69;99034.69;5042112;28;20407;-75
2023/04/27 02:47:11;;;;;;;11.48;4.50;;;;;;;9.56;57.30;99021.63;5046903;28;20403;-75
2023/04/27 02:49:36;;;;;;;8.95;4.05;;;;;;;9.61;57.80;99028.97;5049342;28;20028;-75
2023/04/27 02:52:02;;;;;;;11.93;3.97;;;;;;;9.57;57.75;99028.84;5050840;28;20086;-75
2023/04/27 02:54:28;;;;;;;10.55;4.20;;;;;;;9.55;57.90;99022.78;5050505;28;20025;-75
2023/04/27 02:56:53;;;;;;;7.25;4.57;;;;;;;9.52;57.63;99026.22;5050503;28;20393;-75
2023/04/27 02:59:19;;;;;;;9.40;4.90;;;;;;;9.51;57.56;99036.59;5046844;28;20036;-75
2023/04/27 03:01:45;;;;;;;15.23;4.43;;;;;;;9.53;57.54;99037.06;5050410;28;20036;-75
2023/04/27 03:04:12;;;;;;;7.95;3.95;;;;;;;9.50;57.66;99032.16;5044518;28;20080;-75
2023/04/27 03:06:39;;;;;;;6.65;4.30;;;;;;;9.50;58.50;99028.53;5030483;28;20408;-75
2023/04/27 03:09:04;;;;;;;6.50;4.28;;;;;;;9.43;57.51;99037.47;5033300;28;20034;-75
2023/04/27 03:11:30;;;;;;;11.30;5.05;;;;;;;9.43;57.81;99040.25;5033956;28;20025;-75
2023/04/27 03:13:55;;;;;;;14.63;4.93;;;;;;;9.44;57.79;99041.09;5039000;28;20407;-75
2023/04/27 03:16:21;;;;;;;9.23;4.40;;;;;;;9.43;57.26;99045.84;5053730;28;20028;-75
2023/04/27 03:18:46;;;;;;;7.85;4.28;;;;;;;9.44;57.31;99052.25;5053834;28;20411;-75
2023/04/27 03:21:12;;;;;;;11.95;4.63;;;;;;;9.40;57.50;99052.91;5052398;28;20036;-75
2023/04/27 03:23:38;;;;;;;9.50;4.03;;;;;;;9.38;57.20;99055.22;5053352;28;20033;-75
2023/04/27 03:26:08;;;;;;;5.18;4.18;;;;;;;9.43;56.94;99056.19;5033688;28;20060;-75
2023/04/27 03:28:33;;;;;;;8.88;4.28;;;;;;;9.34;57.63;99051.47;5044561;28;20043;-75
2023/04/27 03:31:00;;;;;;;11.43;4.95;;;;;;;9.32;57.11;99048.22;5053462;28;20033;-75
2023/04/27 03:33:27;;;;;;;6.78;4.35;;;;;;;9.33;57.91;99054.59;5053585;28;20404;-75
2023/04/27 03:35:56;;;;;;;12.23;4.88;;;;;;;9.30;57.74;99049.69;5052354;28;20032;-75
2023/04/27 03:38:22;;;;;;;12.73;4.53;;;;;;;9.35;57.41;99069.03;5033612;28;20036;-75
2023/04/27 03:40:47;;;;;;;12.50;4.85;;;;;;;9.35;57.03;99067.06;5048818;28;20037;-75
2023/04/27 03:43:13;;;;;;;11.07;4.60;;;;;;;9.29;57.06;99062.00;5037360;28;20053;-75
2023/04/27 03:45:38;;;;;;;8.23;4.30;;;;;;;9.30;56.90;99069.22;5049380;28;20124;-75
2023/04/27 03:48:04;;;;;;;9.52;4.32;;;;;;;9.29;56.29;99068.44;5053192;28;20021;-75
2023/04/27 03:50:30;;;;;;;7.45;4.20;;;;;;;9.24;57.13;99069.44;5053244;28;20407;-75
2023/04/27 03:52:55;;;;;;;6.20;4.07;;;;;;;9.23;57.56;99069.75;5053236;28;20051;-75
2023/04/27 03:55:21;;;;;;;7.43;3.92;;;;;;;9.23;56.73;99075.34;5051851;28;20029;-75
2023/04/27 03:57:46;;;;;;;11.52;4.13;;;;;;;9.26;57.28;99085.81;5045717;28;20033;-75
2023/04/27 04:00:15;;;;;;;7.57;3.75;;;;;;;9.25;57.07;99086.97;5040782;28;20064;-75
2023/04/27 04:02:41;;;;;;;12.10;4.93;;;;;;;9.23;56.98;99087.31;5043352;28;20041;-75
2023/04/27 04:05:07;;;;;;;17.40;4.82;;;;;;;9.27;57.37;99104.19;5032958;28;20459;-75
2023/04/27 04:07:33;;;;;;;8.95;4.50;;;;;;;9.24;57.37;99096.50;5032968;28;20033;-75
2023/04/27 04:09:58;;;;;;;24.77;4.45;;;;;;;9.28;56.50;99097.47;5033004;28;20496;-75
2023/04/27 04:12:24;;;;;;;9.25;3.92;;;;;;;9.30;57.35;99105.50;5040901;28;20022;-75
2023/04/27 04:14:50;;;;;;;21.83;6.00;;;;;;;9.32;56.85;99112.41;5039808;28;20020;-76
2023/04/27 04:17:15;;;;;;;13.35;6.78;;;;;;;9.26;56.57;99114.56;5040881;28;20488;-75
2023/04/27 04:19:41;;;;;;;16.55;6.07;;;;;;;9.27;56.93;99121.78;5032860;28;20078;-75
2023/04/27 04:22:07;;;;;;;10.95;5.53;;;;;;;9.26;56.78;99122.09;5052474;28;20053;-75
2023/04/27 04:24:32;;;;;;;8.57;4.72;;;;;;;9.29;56.61;99121.44;5052489;28;20028;-75
2023/04/27 04:26:57;;;;;;;10.65;5.57;;;;;;;9.29;57.09;99124.25;5050977;28;20041;-75
2023/04/27 04:29:24;;;;;;;9.85;5.68;;;;;;;9.31;57.26;99118.31;5036003;28;20040;-75
2023/04/27 04:31:50;;;;;;;14.35;5.40;;;;;;;9.25;56.25;99128.84;5034795;28;20022;-75
2023/04/27 04:34:15;;;;;;;10.23;4.93;;;;;;;9.30;56.73;99144.59;5032779;28;20140;-75
2023/04/27 04:36:41;;;;;;;12.40;5.05;;;;;;;9.29;55.42;99134.56;5038129;28;20025;-75
2023/04/27 04:39:06;;;;;;;9.88;4.28;;;;;;;9.31;55.74;99127.50;5045047;28;20052;-75
2023/04/27 04:41:32;;;;;;;13.27;5.28;;;;;;;9.30;56.21;99131.47;5031143;28;20033;-75
2023/04/27 04:43:58;;;;;;;13.75;4.38;;;;;;;9.30;55.92;99130.63;5031383;28;20053;-74
2023/04/27 04:46:24;;;;;;;11.30;4.47;;;;;;;9.32;54.45;99139.47;5039367;28;20039;-73
2023/04/27 04:48:50;;;;;;;8.07;4.07;;;;;;;9.38;55.55;99144.53;5039672;28;20488;-74
2023/04/27 04:51:16;;;;;;;8.23;4.93;;;;;;;9.34;55.00;99138.00;5034889;28;20033;-74
2023/04/27 04:53:41;;;;;;;9.65;5.18;;;;;;;9.38;55.83;99154.91;5037980;28;20040;-75
2023/04/27 04:56:09;;;;;;;18.85;5.95;;;;;;;9.41;55.60;99155.06;5033046;28;20075;-74
2023/04/27 04:58:34;;;;;;;14.10;6.78;;;;;;;9.39;55.80;99145.38;5030001;28;20536;-74
2023/04/27 05:01:00;;;;;;;9.48;6.38;;;;;;;9.41;56.25;99152.25;5036105;28;20075;-75
2023/04/27 05:03:26;;;;;;;20.92;8.55;;;;;;;9.43;56.57;99154.69;5036143;28;20511;-77
2023/04/27 05:05:51;;;;;;;14.32;7.70;;;;;;;9.43;55.20;99165.06;5037321;28;20021;-74
2023/04/27 05:08:17;;;;;;;12.48;6.07;;;;;;;9.51;55.39;99169.78;5033488;28;20029;-75
2023/04/27 05:10:51;;;;;;;19.52;6.25;;;;;;;9.43;54.85;99167.84;5038667;28;20024;-74
2023/04/27 05:13:16;;;;;;;14.18;7.05;;;;;;;9.35;55.30;99167.53;5037461;28;20524;-74
2023/04/27 05:15:42;;;;;;;9.07;4.93;;;;;;;9.35;54.67;99180.66;5037303;28;20105;-75
2023/04/27 05:18:08;;;;;;;10.27;5.97;;;;;;;9.36;56.29;99174.75;5035491;28;20087;-73
2023/04/27 05:20:34;;;;;;;8.75;5.38;;;;;;;9.29;55.09;99177.28;5035165;28;20043;-73
2023/04/27 05:23:00;;;;;;;24.88;4.47;;;;;;;9.25;54.47;99171.53;5034669;28;20070;-74
2023/04/27 05:25:28;;;;;;;12.85;5.75;;;;;;;9.35;54.53;99175.91;5031368;28;20484;-74
2023/04/27 05:27:53;;;;;;;12.80;4.53;;;;;;;9.31;54.48;99179.72;5031560;28;20106;-73
2023/04/27 05:30:19;;;;;;;7.05;3.92;;;;;;;9.26;54.22;99187.13;5036537;28;20020;-75
2023/04/27 05:32:45;;;;;;;9.48;5.05;;;;;;;9.24;54.88;99177.44;5030427;28;20029;-75
2023/04/27 05:35:10;;;;;;;14.63;7.25;;;;;;;9.22;55.32;99180.53;5029078;28;20025;-76
2023/04/27 05:37:36;;;;;;;17.00;5.10;;;;;;;9.31;55.75;99182.50;5031349;28;20029;-76
2023/04/27 05:40:04;;;;;;;12.05;4.45;;;;;;;9.25;55.77;99185.47;5029499;28;20040;-73
2023/04/27 05:42:30;;;;;;;12.45;5.45;;;;;;;9.20;54.62;99176.47;5034649;28;20029;-78
2023/04/27 05:44:55;;;;;;;5.97;4.50;;;;;;;9.13;54.96;99175.00;5036375;28;20455;-75
2023/04/27 05:47:21;;;;;;;9.35;4.43;;;;;;;9.30;55.18;99195.66;5028257;28;20032;-73
2023/04/27 05:49:51;;;;;;;9.70;4.32;;;;;;;9.36;54.82;99191.50;5043203;28;20028;-75
2023/04/27 05:52:18;;;;;;;12.82;4.82;;;;;;;9.44;55.75;99203.00;5044404;28;20606;-74
2023/04/27 05:54:47;;;;;;;12.38;4.55;;;;;;;9.46;55.57;99195.91;5043823;28;20517;-74
2023/04/27 05:57:13;;;;;;;14.97;6.70;;;;;;;9.54;55.85;99197.84;5032661;28;20154;-74
2023/04/27 05:59:39;;;;;;;15.38;5.32;;;;;;;9.59;54.61;99199.63;5033560;28;20029;-74
2023/04/27 06:02:05;;;;;;;18.38;5.90;;;;;;;9.68;55.24;99203.22;5035799;28;20032;-73
2023/04/27 06:04:32;;;;;;;15.27;6.22;;;;;;;9.77;54.22;99200.38;5038544;28;20044;-73
2023/04/27 06:06:58;;;;;;;11.45;5.88;;;;;;;9.86;55.12;99202.31;5030443;28;20110;-73
2023/04/27 06:09:23;;;;;;;14.75;7.28;;;;;;;9.84;54.24;99194.25;5046017;28;20025;-72
2023/04/27 06:11:49;;;;;;;9.75;5.28;;;;;;;9.93;54.43;99192.25;5040098;28;20025;-76
2023/04/27 06:14:15;;;;;;;11.30;5.32;;;;;;;10.07;53.50;99197.56;5032605;28;20377;-75
2023/04/27 06:16:41;;;;;;;18.75;4.82;;;;;;;10.13;53.04;99203.78;5032198;28;20399;-75
2023/04/27 06:19:06;;;;;;;19.25;6.55;;;;;;;10.21;53.78;99208.50;5029800;28;20029;-75
2023/04/27 06:21:32;;;;;;;10.70;6.13;;;;;;;10.30;53.39;99207.63;5038127;28;20025;-76
2023/04/27 06:23:58;;;;;;;10.70;5.47;;;;;;;10.45;53.16;99190.28;5045022;28;20020;-74
2023/04/27 06:26:24;;;;;;;18.38;6.05;;;;;;;10.57;53.15;99197.09;5031420;28;20067;-74
2023/04/27 06:28:49;;;;;;;11.77;4.57;;;;;;;10.65;52.55;99197.00;5033423;28;20071;-77
2023/04/27 06:31:15;;;;;;;16.70;6.43;;;;;;;10.77;53.62;99201.03;5040175;28;20021;-76
2023/04/27 06:33:41;;;;;;;22.42;6.10;;;;;;;10.93;52.98;99204.84;5047756;28;20445;-77
2023/04/27 06:36:07;;;;;;;10.80;4.95;;;;;;;10.86;51.11;99196.19;5033384;28;20025;-73
2023/04/27 06:38:32;;;;;;;15.68;5.50;;;;;;;10.77;51.45;99201.03;5034034;28;20026;-75
2023/04/27 06:40:58;;;;;;;16.45;7.13;;;;;;;10.95;53.29;99204.47;5031135;28;20034;-75
2023/04/27 06:43:23;;;;;;;11.13;4.78;;;;;;;10.99;52.81;99199.03;5038174;28;20052;-77
2023/04/27 06:45:49;;;;;;;14.15;6.40;;;;;;;11.18;51.04;99202.13;5039349;28;20030;-75
2023/04/27 06:48:15;;;;;;;31.23;7.88;;;;;;;11.32;50.32;99203.78;5039961;28;20099;-73
2023/04/27 06:50:41;;;;;;;11.02;4.25;;;;;;;11.61;48.26;99202.78;5043525;28;20056;-74
2023/04/27 06:53:07;;;;;;;18.77;6.50;;;;;;;11.60;48.21;99194.72;5043306;28;20021;-74
2023/04/27 06:55:33;;;;;;;18.25;5.25;;;;;;;11.66;49.00;99207.34;5034256;28;20021;-74
2023/04/27 06:57:58;;;;;;;9.43;3.88;;;;;;;11.65;48.04;99209.31;5048606;28;20442;-74
2023/04/27 07:00:24;;;;;;;8.60;3.50;;;;;;;11.54;46.97;99210.94;5054111;28;20091;-74
2023/04/27 07:02:50;;;;;;;9.13;3.85;;;;;;;11.51;47.87;99212.44;5054194;28;20090;-74
2023/04/27 07:05:15;;;;;;;7.43;3.90;;;;;;;11.46;47.44;99211.84;5049554;28;20038;-73
2023/04/27 07:07:41;;;;;;;14.40;3.58;;;;;;;11.65;47.22;99216.91;5036374;28;20029;-73
2023/04/27 07:10:08;;;;;;;11.63;3.95;;;;;;;11.89;47.32;99204.88;5039987;28;20021;-74
2023/04/27 07:12:33;;;;;;;17.02;4.45;;;;;;;12.46;46.06;99221.91;5053701;28;20025;-74
2023/04/27 07:14:59;;;;;;;9.10;4.32;;;;;;;12.81;44.87;99203.69;5047160;28;20021;-75
2023/04/27 07:17:24;;;;;;;14.27;4.82;;;;;;;12.84;43.94;99210.59;5040707;28;20428;-79
2023/04/27 07:19:50;;;;;;;8.52;3.80;;;;;;;13.06;43.16;99210.03;5039955;28;20032;-76
2023/04/27 07:22:16;;;;;;;11.68;4.95;;;;;;;13.00;43.85;99205.03;5038457;28;20067;-73
2023/04/27 07:24:41;;;;;;;16.10;4.20;;;;;;;13.25;43.88;99208.50;5033402;28;20034;-74
2023/04/27 07:27:07;;;;;;;10.80;4.03;;;;;;;12.99;41.69;99212.63;5039232;28;20396;-74
2023/04/27 07:29:32;;;;;;;9.25;4.55;;;;;;;12.89;44.18;99199.91;5038828;28;20420;-73
2023/04/27 07:31:58;;;;;;;13.15;4.60;;;;;;;12.83;43.79;99203.34;5032728;28;20116;-76
2023/04/27 07:34:23;;;;;;;10.15;3.75;;;;;;;12.92;43.26;99201.22;5035643;28;20032;-76
2023/04/27 07:36:50;;;;;;;8.07;4.43;;;;;;;13.02;42.94;99195.06;5041119;28;20033;-74
2023/04/27 07:39:16;;;;;;;13.82;4.30;;;;;;;13.20;42.45;99206.78;5039559;28;20059;-77
2023/04/27 07:41:41;;;;;;;11.75;4.43;;;;;;;13.51;42.22;99198.78;5033937;28;20060;-78
2023/04/27 07:44:07;;;;;;;12.27;4.38;;;;;;;13.69;41.41;99212.50;5035152;28;20099;-79
2023/04/27 07:46:33;;;;;;;11.65;2.97;;;;;;;13.50;41.40;99214.00;5034587;28;20116;-79
2023/04/27 07:48:59;;;;;;;10.85;3.47;;;;;;;13.44;41.20;99202.22;5036708;28;20025;-77
2023/04/27 07:51:27;;;;;;;7.95;4.00;;;;;;;13.55;40.97;99213.75;5042027;28;20032;-75
2023/04/27 07:53:53;;;;;;;8.40;4.05;;;;;;;13.62;41.50;99205.50;5036164;28;20017;-80
2023/04/27 07:56:18;;;;;;;12.52;3.13;;;;;;;13.72;40.74;99206.13;5039809;28;20029;-78
2023/04/27 07:58:43;;;;;;;7.75;3.55;;;;;;;13.98;41.90;99201.94;5034651;28;20037;-77
2023/04/27 08:01:09;;;;;;;11.18;4.85;;;;;;;14.02;41.05;99198.03;5034795;28;20033;-78
2023/04/27 08:03:34;;;;;;;13.68;4.53;;;;;;;14.06;40.62;99203.75;5032398;28;20025;-78
2023/04/27 08:06:00;;;;;;;14.30;4.50;;;;;;;13.95;40.90;99202.69;5032516;28;20028;-78
2023/04/27 08:08:26;;;;;;;9.77;3.92;;;;;;;13.70;39.96;99202.88;5039460;28;20079;-77
2023/04/27 08:10:51;;;;;;;10.40;3.85;;;;;;;13.86;40.81;99206.47;5029980;28;20046;-78
2023/04/27 08:13:16;;;;;;;8.65;3.70;;;;;;;14.14;40.87;99204.72;5035666;28;20489;-81
2023/04/27 08:15:42;;;;;;;14.63;4.00;;;;;;;13.94;41.22;99195.44;5035194;28;20466;-80
2023/04/27 08:18:07;;;;;;;4.50;3.58;;;;;;;14.56;39.69;99198.47;5031890;28;20423;-79
2023/04/27 08:20:33;;;;;;;10.63;3.72;;;;;;;14.21;39.28;99198.47;5031940;28;20412;-77
2023/04/27 08:22:58;;;;;;;6.40;3.80;;;;;;;14.48;39.43;99187.41;5035602;28;20031;-77
2023/04/27 08:25:24;;;;;;;4.55;3.80;;;;;;;14.68;39.05;99182.63;5036525;28;20087;-78
2023/04/27 08:27:49;;;;;;;8.70;3.85;;;;;;;14.74;38.76;99187.59;5043331;28;20025;-73
2023/04/27 08:30:15;;;;;;;6.20;4.03;;;;;;;15.02;38.23;99186.56;5047550;28;20021;-75
2023/04/27 08:32:41;;;;;;;8.75;3.50;;;;;;;15.12;37.81;99181.50;5033275;28;20025;-77
2023/04/27 08:35:06;;;;;;;11.07;5.28;;;;;;;15.15;39.58;99177.94;5032988;28;20168;-76
2023/04/27 08:37:32;;;;;;;7.00;4.53;;;;;;;15.28;38.59;99176.56;5037858;28;20075;-77
2023/04/27 08:39:58;;;;;;;9.35;3.72;;;;;;;15.10;38.78;99173.41;5038792;28;20025;-76
2023/04/27 08:42:24;;;;;;;8.88;4.28;;;;;;;15.04;37.75;99185.34;5030525;28;20036;-76
2023/04/27 08:44:50;;;;;;;9.82;5.10;;;;;;;15.39;38.73;99181.59;5031302;28;20449;-77
2023/04/27 08:47:15;;;;;;;9.60;4.25;;;;;;;15.69;38.68;99184.53;5030584;28;20079;-76
2023/04/27 08:49:41;;;;;;;8.35;3.53;;;;;;;15.65;38.63;99168.75;5034957;28;20028;-76
2023/04/27 08:52:13;;;;;;;11.80;4.18;;;;;;;15.77;38.89;99182.63;5037034;28;20042;-75
2023/04/27 08:54:39;;;;;;;11.02;4.97;;;;;;;15.56;38.77;99181.06;5040702;28;20025;-75
2023/04/27 08:57:10;;;;;;;8.57;3.72;;;;;;;15.69;38.33;99164.78;5032179;28;20112;-76
2023/04/27 08:59:35;;;;;;;9.13;4.25;;;;;;;15.80;38.73;99189.53;5031982;28;20554;-77
2023/04/27 09:02:02;;;;;;;5.25;3.45;;;;;;;15.45;37.88;99180.09;5031769;28;20032;-78
2023/04/27 09:04:40;;;;;;;5.32;3.25;;;;;;;15.42;37.17;99147.84;5031784;28;20099;-75
2023/04/27 09:07:16;;;;;;;6.32;3.38;;;;;;;15.34;39.15;99167.81;5043941;28;20021;-76
2023/04/27 09:09:43;;;;;;;5.97;3.15;;;;;;;15.02;37.30;99180.91;5041304;28;20033;-76
2023/04/27 09:12:27;;;;;;;10.95;3.88;;;;;;;15.57;38.41;99170.63;5041369;28;20100;-75
2023/04/27 09:14:57;;;;;;;12.68;3.67;;;;;;;16.06;37.57;99190.78;5038766;28;20096;-75
2023/04/27 09:17:26;;;;;;;7.88;3.15;;;;;;;16.20;36.00;99181.72;5047700;28;20032;-76
2023/04/27 09:20:06;;;;;;;9.63;3.38;;;;;;;15.75;37.35;99181.38;5031767;28;20514;-75
2023/04/27 09:22:41;;;;;;;8.70;3.53;;;;;;;15.08;38.97;99184.25;5038946;28;20094;-75
2023/04/27 09:25:06;;;;;;;5.00;3.05;;;;;;;14.74;38.46;99181.97;5042875;28;20454;-76
2023/04/27 09:27:32;;;;;;;4.45;2.67;;;;;;;14.59;38.32;99180.00;5048665;28;20029;-77
2023/04/27 09:29:57;;;;;;;7.95;4.35;;;;;;;14.92;37.95;99169.44;5031755;28;20079;-77
2023/04/27 09:32:23;;;;;;;6.32;3.42;;;;;;;15.18;37.57;99177.19;5041026;28;20040;-75
2023/04/27 09:34:48;;;;;;;8.60;3.55;;;;;;;14.40;37.88;99190.06;5038723;28;20021;-75
2023/04/27 09:37:14;;;;;;;6.53;3.03;;;;;;;14.33;37.71;99173.00;5037483;28;20040;-76
2023/04/27 09:39:41;;;;;;;5.88;3.53;;;;;;;14.29;38.81;99181.38;5040442;28;20021;-79
2023/04/27 09:42:07;;;;;;;4.95;3.28;;;;;;;14.49;38.22;99167.34;5037200;28;20039;-76
2023/04/27 09:44:34;;;;;;;8.82;4.03;;;;;;;15.29;37.04;99166.94;5045841;28;20048;-73
2023/04/27 09:47:00;;;;;;;8.65;3.25;;;;;;;15.68;36.11;99162.34;5039063;28;20052;-74
2023/04/27 09:49:30;;;;;;;5.22;2.92;;;;;;;15.62;36.46;99164.66;5033010;28;20504;-79
2023/04/27 09:51:57;;;;;;;6.78;3.35;;;;;;;15.42;36.75;99175.19;5028399;28;20037;-79
2023/04/27 09:54:30;;;;;;;8.55;3.78;;;;;;;15.39;35.84;99173.13;5031122;28;20033;-77
2023/04/27 09:57:26;;;;;;;8.38;2.95;;;;;;;15.32;37.33;99170.19;5038579;28;20026;-77
2023/04/27 10:00:09;;;;;;;12.45;4.13;;;;;;;15.76;35.76;99163.31;5036585;28;20108;-78
2023/04/27 10:03:02;;;;;;;10.25;3.30;;;;;;;15.63;37.09;99168.31;5035948;28;20029;-75
2023/04/27 10:05:49;;;;;;;6.60;3.63;;;;;;;15.89;35.57;99158.25;5036042;28;20039;-79
2023/04/27 10:08:15;;;;;;;6.15;3.83;;;;;;;15.53;35.70;99156.47;5032638;28;20032;-79
2023/04/27 10:10:42;;;;;;;7.20;4.35;;;;;;;15.47;36.08;99158.00;5032239;28;20533;-78
2023/04/27 10:13:19;;;;;;;6.68;3.05;;;;;;;14.92;36.14;99166.63;5034638;28;20021;-80
2023/04/27 10:15:44;;;;;;;5.43;3.55;;;;;;;14.97;35.81;99169.97;5039384;28;20032;-74
2023/04/27 10:18:10;;;;;;;9.45;3.78;;;;;;;15.14;36.38;99174.31;5040863;28;20024;-75
2023/04/27 10:20:36;;;;;;;6.97;3.30;;;;;;;15.34;35.96;99168.63;5036228;28;20025;-79
2023/04/27 10:23:05;;;;;;;8.63;3.75;;;;;;;15.30;35.78;99174.19;5038221;28;20029;-76
2023/04/27 10:25:41;;;;;;;4.75;2.78;;;;;;;15.02;35.42;99164.03;5040228;28;20033;-75
2023/04/27 10:28:07;;;;;;;5.03;3.80;;;;;;;15.19;36.39;99166.75;5039953;28;20025;-76
2023/04/27 10:30:38;;;;;;;7.30;3.65;;;;;;;14.91;36.08;99171.44;5035558;28;20547;-79
2023/04/27 10:33:04;;;;;;;;;;;;;;;15.12;35.90;99171.03;5042116;28;20037;-75
2023/04/27 10:35:34;;;;;;;5.90;3.72;;;;;;;15.35;36.03;99181.53;5037300;28;19917;-73
2023/04/27 10:38:07;;;;;;;4.70;3.23;;;;;;;15.33;35.53;99177.47;5035871;28;20029;-75
2023/04/27 10:40:33;;;;;;;4.40;2.95;;;;;;;15.51;35.38;99177.78;5034579;28;20519;-74
2023/04/27 10:43:13;;;;;;;3.58;3.03;;;;;;;15.56;35.79;99174.66;5050070;28;20493;-73
2023/04/27 10:45:40;;;;;;;4.13;3.10;;;;;;;15.06;35.19;99175.34;5048144;28;20091;-78
2023/04/27 10:48:06;;;;;;;8.45;2.97;;;;;;;15.19;35.37;99173.16;5049538;28;20029;-80
2023/04/27 10:50:33;;;;;;;9.25;3.55;;;;;;;15.28;35.39;99182.19;5036170;28;20037;-76
2023/04/27 10:53:07;;;;;;;6.53;3.42;;;;;;;15.56;36.03;99175.44;5033406;28;20031;-80
2023/04/27 10:55:34;;;;;;;7.63;3.08;;;;;;;15.35;35.11;99187.16;5039420;28;20026;-79
2023/04/27 10:58:00;;;;;;;9.80;4.85;;;;;;;15.37;35.63;99178.34;5049598;28;20079;-78
2023/04/27 11:00:34;;;;;;;8.30;3.50;;;;;;;15.26;34.96;99189.41;5051030;28;20028;-77
2023/04/27 11:03:10;;;;;;;9.90;3.30;;;;;;;15.12;35.29;99184.31;5044024;28;20032;-74
2023/04/27 11:05:36;;;;;;;5.55;3.25;;;;;;;15.06;34.04;99180.16;5042795;28;20030;-77
2023/04/27 11:08:11;;;;;;;3.67;3.05;;;;;;;14.96;33.68;99179.59;5035507;28;20021;-79
2023/04/27 11:10:50;;;;;;;4.55;3.22;;;;;;;14.93;34.66;99191.59;5034445;28;20029;-78
2023/04/27 11:13:21;;;;;;;5.85;3.75;;;;;;;15.20;33.98;99180.44;5037043;28;20041;-77
2023/04/27 11:15:48;;;;;;;6.43;3.03;;;;;;;15.26;33.70;99184.59;5048685;28;20424;-78
2023/04/27 11:18:16;;;;;;;7.25;3.22;;;;;;;15.27;34.40;99174.94;5038264;28;20049;-84
2023/04/27 11:20:47;;;;;;;6.30;3.08;;;;;;;15.51;34.64;99175.78;5034109;28;20515;-76
2023/04/27 11:23:27;;;;;;;4.65;2.80;;;;;;;15.60;34.23;99174.72;5045213;28;20554;-76
2023/04/27 11:25:54;;;;;;;5.53;3.60;;;;;;;15.65;33.25;99182.84;5042716;28;20067;-75
2023/04/27 11:28:20;;;;;;;7.88;3.08;;;;;;;15.41;32.53;99185.66;5031261;28;20029;-81
2023/04/27 11:30:48;;;;;;;6.38;3.58;;;;;;;15.34;32.81;99179.09;5033793;28;20072;-77
2023/04/27 11:33:13;;;;;;;4.55;2.80;;;;;;;15.70;32.98;99188.19;5042256;28;20029;-75